ENNA METAR and TAF weather

Enter ICAO airport designator
Station Type Date Time Source
ENNA METAR 2019/08/25 06:20 UTC NOAA

ENNA 250620Z AUTO 19016KT 9999 SCT022/// OVC030/// 07/04 Q1021 RMK WIND 1800FT 17027KT


Station Type Date Time Source
ENNA Decoded METAR 2019/08/25 06:20 UTC NOAA

Station name not available
Aug 25, 2019 - 02:20 AM EDT / 2019.08.25 0620 UTC
Wind: from the S (190 degrees) at 18 MPH (16 KT):0
Visibility: greater than 7 mile(s):0
Sky conditions: overcast
Temperature: 44 F (7 C)
Dew Point: 39 F (4 C)
Relative Humidity: 81%
Pressure (altimeter): 30.15 in. Hg (1021 hPa)
ob: ENNA 250620Z AUTO 19016KT 9999 SCT022/// OVC030/// 07/04 Q1021 RMK WIND 1800FT 17027KT
cycle: 6

Station Type Date Time Source
ENNA TAF 2019/08/25 06:57 UTC NOAA

TAF TAF ENNA 250500Z 2506/2606 18008KT 9999 BKN030
TEMPO 2506/2514 18018KT
TEMPO 2513/2606 -RA BKN012

Example: see airport list